Time;durP1;ratioP1;P1;durP2;ratioP2;P2;SDS_P1;SDS_P2;PMS_P1;PMS_P2;Temp;Humidity;BMP_temperature;BMP_pressure;BME280_temperature;BME280_humidity;BME280_pressure;Samples;Min_cycle;Max_cycle;Signal;HPM_P1;HPM_P2
2021/05/30 00:01:06;;;;;;;3.13;2.83;;;22.60;90.00;;;;;;5022391;28;20040;-80
2021/05/30 00:03:32;;;;;;;3.25;2.95;;;22.60;90.00;;;;;;5055055;28;20395;-80
2021/05/30 00:05:58;;;;;;;3.38;2.95;;;22.60;90.00;;;;;;5050991;28;20061;-80
2021/05/30 00:08:23;;;;;;;4.10;2.72;;;22.60;90.00;;;;;;5058317;28;20107;-81
2021/05/30 00:10:49;;;;;;;4.00;2.75;;;22.60;90.00;;;;;;5052555;28;20037;-80
2021/05/30 00:13:18;;;;;;;3.05;2.78;;;22.60;90.00;;;;;;5063674;28;20104;-80
2021/05/30 00:15:44;;;;;;;2.50;2.30;;;22.60;90.00;;;;;;5052633;28;20032;-80
2021/05/30 00:18:09;;;;;;;3.20;2.90;;;22.60;90.00;;;;;;5061853;28;20024;-80
2021/05/30 00:20:35;;;;;;;4.05;2.75;;;22.60;90.00;;;;;;5068481;28;20052;-80
2021/05/30 00:23:00;;;;;;;3.13;2.83;;;22.60;90.00;;;;;;5064384;28;20029;-81
2021/05/30 00:25:26;;;;;;;3.47;2.90;;;22.60;90.00;;;;;;5063412;28;20455;-81
2021/05/30 00:27:52;;;;;;;3.08;2.78;;;22.60;90.00;;;;;;5045646;28;20377;-80
2021/05/30 00:30:18;;;;;;;3.42;2.95;;;22.60;90.00;;;;;;5036842;28;20542;-80
2021/05/30 00:32:43;;;;;;;3.20;2.90;;;22.60;90.00;;;;;;5053236;28;20029;-82
2021/05/30 00:35:09;;;;;;;3.47;2.88;;;22.60;90.00;;;;;;5060686;28;20037;-80
2021/05/30 00:37:35;;;;;;;4.22;2.85;;;22.60;90.00;;;;;;5067632;28;20378;-80
2021/05/30 00:40:01;;;;;;;3.15;2.85;;;22.60;90.00;;;;;;5066821;28;20533;-80
2021/05/30 00:42:26;;;;;;;3.67;3.05;;;22.60;90.00;;;;;;5069888;28;20024;-80
2021/05/30 00:44:52;;;;;;;3.72;3.08;;;22.60;90.00;;;;;;5040159;28;20368;-79
2021/05/30 00:47:18;;;;;;;3.55;3.25;;;22.60;90.00;;;;;;5031909;28;20458;-79
2021/05/30 00:49:43;;;;;;;4.05;3.42;;;22.70;90.10;;;;;;5055061;28;20029;-79
2021/05/30 00:52:09;;;;;;;4.53;3.17;;;22.60;90.00;;;;;;5052192;28;20041;-80
2021/05/30 00:54:36;;;;;;;4.15;3.25;;;22.60;90.00;;;;;;5035746;28;20036;-80
2021/05/30 00:57:06;;;;;;;4.53;3.30;;;22.70;90.10;;;;;;5052109;28;20021;-80
2021/05/30 00:59:31;;;;;;;4.35;3.17;;;22.60;90.00;;;;;;5058277;28;20049;-80
2021/05/30 01:01:57;;;;;;;3.78;3.30;;;22.60;90.00;;;;;;5070160;28;20033;-82
2021/05/30 01:04:22;;;;;;;4.07;3.55;;;22.60;90.00;;;;;;5059672;28;20549;-81
2021/05/30 01:06:48;;;;;;;4.38;3.58;;;22.60;90.30;;;;;;5050636;28;20036;-81
2021/05/30 01:09:14;;;;;;;4.25;3.70;;;22.60;90.00;;;;;;5045642;28;20036;-81
2021/05/30 01:11:46;;;;;;;4.13;3.35;;;22.60;90.00;;;;;;5052814;28;20475;-81
2021/05/30 01:14:12;;;;;;;3.90;3.50;;;22.70;90.10;;;;;;5058602;28;20021;-84
2021/05/30 01:16:38;;;;;;;3.83;3.42;;;22.60;90.00;;;;;;5068609;28;20127;-81
2021/05/30 01:19:08;;;;;;;4.15;3.53;;;22.60;90.00;;;;;;5048305;28;20167;-81
2021/05/30 01:21:33;;;;;;;3.72;3.20;;;22.60;90.00;;;;;;5051456;28;20494;-80
2021/05/30 01:23:59;;;;;;;5.97;3.95;;;22.60;90.30;;;;;;5055508;28;20040;-80
2021/05/30 01:26:25;;;;;;;3.50;3.20;;;22.70;90.10;;;;;;5035923;28;20029;-80
2021/05/30 01:28:52;;;;;;;4.22;3.40;;;22.70;90.10;;;;;;5052861;28;20044;-81
2021/05/30 01:31:17;;;;;;;4.40;3.15;;;22.70;90.10;;;;;;5057820;28;20092;-81
2021/05/30 01:33:44;;;;;;;4.43;3.38;;;22.70;90.10;;;;;;5033605;28;20025;-80
2021/05/30 01:36:10;;;;;;;3.53;3.22;;;22.70;90.10;;;;;;5067361;28;20421;-81
2021/05/30 01:38:37;;;;;;;4.63;4.05;;;22.70;90.10;;;;;;5065951;28;20033;-80
2021/05/30 01:41:03;;;;;;;5.50;3.38;;;22.70;90.10;;;;;;5055442;28;20029;-81
2021/05/30 01:43:29;;;;;;;4.10;3.22;;;22.70;90.10;;;;;;5052162;28;20386;-81
2021/05/30 01:45:56;;;;;;;3.63;3.17;;;22.70;90.10;;;;;;5069187;28;20028;-81
2021/05/30 01:48:21;;;;;;;3.70;3.10;;;22.70;90.10;;;;;;5050237;28;20059;-81
2021/05/30 01:50:47;;;;;;;4.22;3.50;;;22.70;90.10;;;;;;5039610;28;20057;-83
2021/05/30 01:53:18;;;;;;;4.28;3.45;;;22.70;90.10;;;;;;5039531;28;20109;-80
2021/05/30 01:56:55;;;;;;;3.88;3.40;;;22.70;90.10;;;;;;5060399;28;20025;-81
2021/05/30 01:58:30;;;;;;;3.65;3.10;;;22.70;90.10;;;;;;5061822;28;20164;-80
2021/05/30 02:00:56;;;;;;;3.85;3.38;;;22.70;90.10;;;;;;5065635;28;20047;-81
2021/05/30 02:03:23;;;;;;;4.90;3.50;;;22.70;90.30;;;;;;5069599;28;20482;-80
2021/05/30 02:05:52;;;;;;;4.28;3.63;;;22.60;90.30;;;;;;5069568;28;20043;-80
2021/05/30 02:08:19;;;;;;;4.68;3.95;;;22.60;90.00;;;;;;5074919;28;20440;-80
2021/05/30 02:10:45;;;;;;;5.78;4.13;;;22.60;90.00;;;;;;5089139;28;20502;-81
2021/05/30 02:13:12;;;;;;;4.85;3.40;;;22.60;90.00;;;;;;5087066;28;20103;-80
2021/05/30 02:15:37;;;;;;;4.35;3.55;;;22.60;90.00;;;;;;5054971;28;20035;-81
2021/05/30 02:18:05;;;;;;;5.22;3.70;;;22.60;90.10;;;;;;5074534;28;20021;-80
2021/05/30 02:20:35;;;;;;;4.93;4.10;;;22.60;90.00;;;;;;5079852;28;20045;-80
2021/05/30 02:23:01;;;;;;;4.95;3.95;;;22.60;90.00;;;;;;5056778;28;20029;-80
2021/05/30 02:25:26;;;;;;;5.28;3.42;;;22.60;90.10;;;;;;5060473;28;20024;-80
2021/05/30 02:27:53;;;;;;;4.45;3.35;;;22.60;90.00;;;;;;5061867;28;20036;-81
2021/05/30 02:30:19;;;;;;;5.50;3.45;;;22.60;90.00;;;;;;5086608;28;20149;-81
2021/05/30 02:32:46;;;;;;;4.75;3.92;;;22.60;90.00;;;;;;5085887;28;20032;-80
2021/05/30 02:35:12;;;;;;;4.75;3.42;;;22.60;90.00;;;;;;5057811;28;20025;-81
2021/05/30 02:37:38;;;;;;;3.92;3.53;;;22.60;90.00;;;;;;5053079;28;20077;-81
2021/05/30 02:40:05;;;;;;;5.25;3.80;;;22.60;90.00;;;;;;5050217;28;20060;-81
2021/05/30 02:42:31;;;;;;;3.90;3.47;;;22.60;90.00;;;;;;5060348;28;20477;-80
2021/05/30 02:44:57;;;;;;;5.40;3.53;;;22.60;90.00;;;;;;5056860;28;20121;-80
2021/05/30 02:47:22;;;;;;;4.47;3.40;;;22.60;90.00;;;;;;5060010;28;20470;-81
2021/05/30 02:49:48;;;;;;;4.45;4.05;;;22.60;90.00;;;;;;5076695;28;20158;-81
2021/05/30 02:52:14;;;;;;;3.75;3.22;;;22.60;90.00;;;;;;5057679;28;20044;-80
2021/05/30 02:54:39;;;;;;;3.97;3.25;;;22.60;90.00;;;;;;5055841;28;20029;-81
2021/05/30 02:57:06;;;;;;;4.43;3.30;;;22.60;90.00;;;;;;5040089;28;20035;-81
2021/05/30 02:59:31;;;;;;;5.63;3.92;;;22.60;90.00;;;;;;5056412;28;20081;-81
2021/05/30 03:01:57;;;;;;;6.03;3.90;;;22.60;90.00;;;;;;5055913;28;20557;-81
2021/05/30 03:04:23;;;;;;;5.63;3.40;;;22.60;90.00;;;;;;5056476;28;20086;-80
2021/05/30 03:06:48;;;;;;;4.43;3.65;;;22.60;90.00;;;;;;5039790;28;20467;-80
2021/05/30 03:09:14;;;;;;;4.32;3.58;;;22.60;90.00;;;;;;5073832;28;20056;-80
2021/05/30 03:11:40;;;;;;;5.63;3.75;;;22.60;90.00;;;;;;5039099;28;20037;-81
2021/05/30 03:14:06;;;;;;;4.75;3.53;;;22.60;90.00;;;;;;5039672;28;20024;-80
2021/05/30 03:16:31;;;;;;;4.40;3.38;;;22.60;90.00;;;;;;5073390;28;20032;-81
2021/05/30 03:18:57;;;;;;;3.92;3.08;;;22.60;90.00;;;;;;5075559;28;20036;-81
2021/05/30 03:21:22;;;;;;;5.85;3.72;;;22.60;90.00;;;;;;5075986;28;20043;-80
2021/05/30 03:23:48;;;;;;;8.30;3.88;;;22.60;90.00;;;;;;5059009;28;20039;-81
2021/05/30 03:26:14;;;;;;;4.90;3.38;;;22.60;89.90;;;;;;5074345;28;20028;-81
2021/05/30 03:28:39;;;;;;;4.55;3.50;;;22.60;89.90;;;;;;5039126;28;20029;-82
2021/05/30 03:31:05;;;;;;;3.90;3.10;;;22.60;89.90;;;;;;5022587;28;20130;-80
2021/05/30 03:33:31;;;;;;;4.55;3.50;;;22.60;90.00;;;;;;5055653;28;20052;-80
2021/05/30 03:36:00;;;;;;;4.05;3.40;;;22.60;90.00;;;;;;5052757;28;20036;-80
2021/05/30 03:38:28;;;;;;;4.82;3.88;;;22.60;90.00;;;;;;5072446;28;20048;-81
2021/05/30 03:41:01;;;;;;;3.75;3.33;;;22.60;90.00;;;;;;5069475;28;20032;-81
2021/05/30 03:43:28;;;;;;;4.32;3.25;;;22.60;90.00;;;;;;5059844;28;20028;-81
2021/05/30 03:45:54;;;;;;;4.20;3.35;;;22.60;90.00;;;;;;5058572;28;20391;-81
2021/05/30 03:48:20;;;;;;;4.10;3.35;;;22.60;90.00;;;;;;5027108;28;20032;-81
2021/05/30 03:50:49;;;;;;;6.20;4.03;;;22.60;90.00;;;;;;5063827;28;20414;-82
2021/05/30 03:53:19;;;;;;;4.65;3.80;;;22.60;90.00;;;;;;5075804;28;20028;-81
2021/05/30 03:55:46;;;;;;;4.93;3.40;;;22.60;90.00;;;;;;5066128;28;20024;-81
2021/05/30 03:58:12;;;;;;;5.28;3.78;;;22.60;89.90;;;;;;5037833;28;20043;-81
2021/05/30 04:00:38;;;;;;;3.78;3.20;;;22.60;89.90;;;;;;5073426;28;20052;-80
2021/05/30 04:03:04;;;;;;;5.47;3.63;;;22.60;89.80;;;;;;5054810;28;20032;-80
2021/05/30 04:05:30;;;;;;;4.45;3.17;;;22.60;89.80;;;;;;5073153;28;20054;-80
2021/05/30 04:07:55;;;;;;;4.80;3.47;;;22.60;89.80;;;;;;5056438;28;20466;-80
2021/05/30 04:10:21;;;;;;;4.95;3.47;;;22.60;89.90;;;;;;5048405;28;20517;-80
2021/05/30 04:12:47;;;;;;;3.72;3.40;;;22.60;89.90;;;;;;5082224;28;20051;-81
2021/05/30 04:15:14;;;;;;;4.30;3.40;;;22.60;89.90;;;;;;5076006;28;20025;-81
2021/05/30 04:17:40;;;;;;;4.97;3.45;;;22.60;89.90;;;;;;5058735;28;20551;-81
2021/05/30 04:20:08;;;;;;;4.90;3.20;;;22.60;90.00;;;;;;5054779;28;20478;-80
2021/05/30 04:22:37;;;;;;;3.90;3.03;;;22.60;90.00;;;;;;5089245;28;20543;-81
2021/05/30 04:25:05;;;;;;;3.78;3.38;;;22.60;90.00;;;;;;5092539;28;20591;-81
2021/05/30 04:27:30;;;;;;;3.83;3.40;;;22.60;90.00;;;;;;5093063;28;20028;-80
2021/05/30 04:29:56;;;;;;;4.05;2.90;;;22.60;90.00;;;;;;5088213;28;20024;-80
2021/05/30 04:32:22;;;;;;;4.25;3.53;;;22.60;90.00;;;;;;5064653;28;20040;-80
2021/05/30 04:34:47;;;;;;;5.70;3.15;;;22.60;90.00;;;;;;5072240;28;20490;-81
2021/05/30 04:37:13;;;;;;;4.10;3.30;;;22.60;90.00;;;;;;5072512;28;20520;-81
2021/05/30 04:39:39;;;;;;;3.60;3.03;;;22.60;90.00;;;;;;5060892;28;20028;-81
2021/05/30 04:42:07;;;;;;;3.35;2.78;;;22.60;90.00;;;;;;5058002;28;20044;-81
2021/05/30 04:44:32;;;;;;;5.35;3.60;;;22.60;90.00;;;;;;5044990;28;20060;-80
2021/05/30 04:46:58;;;;;;;4.03;3.25;;;22.60;90.00;;;;;;5055924;28;20037;-80
2021/05/30 04:49:24;;;;;;;3.92;3.33;;;22.60;90.00;;;;;;5037760;28;20029;-81
2021/05/30 04:51:49;;;;;;;5.03;3.33;;;22.60;90.00;;;;;;5056239;28;20529;-81
2021/05/30 04:54:15;;;;;;;4.93;3.40;;;22.60;90.00;;;;;;5065308;28;20116;-81
2021/05/30 04:56:41;;;;;;;4.30;3.08;;;22.60;90.00;;;;;;5070709;28;20028;-80
2021/05/30 04:59:06;;;;;;;5.60;3.63;;;22.60;90.00;;;;;;5057317;28;20068;-81
2021/05/30 05:01:32;;;;;;;4.03;3.20;;;22.60;90.00;;;;;;5055038;28;20375;-81
2021/05/30 05:03:58;;;;;;;4.75;3.17;;;22.60;90.00;;;;;;5072030;28;20037;-82
2021/05/30 05:06:24;;;;;;;4.20;3.13;;;22.60;90.00;;;;;;5021594;28;20479;-83
2021/05/30 05:08:50;;;;;;;3.50;3.20;;;22.60;90.00;;;;;;5076258;28;20082;-84
2021/05/30 05:11:16;;;;;;;3.50;3.20;;;22.60;90.00;;;;;;5058280;28;20428;-84
2021/05/30 05:13:41;;;;;;;6.55;3.78;;;22.60;89.90;;;;;;5055920;28;20033;-81
2021/05/30 05:16:07;;;;;;;5.32;3.67;;;22.60;89.90;;;;;;5041458;28;20501;-80
2021/05/30 05:18:33;;;;;;;4.15;2.97;;;22.60;89.90;;;;;;5041649;28;20032;-80
2021/05/30 05:21:00;;;;;;;3.78;3.13;;;22.60;89.80;;;;;;5075578;28;20505;-81
2021/05/30 05:23:27;;;;;;;4.35;3.38;;;22.60;89.80;;;;;;5052985;28;20537;-81
2021/05/30 05:25:55;;;;;;;4.15;3.17;;;22.60;89.80;;;;;;5070198;28;20513;-82
2021/05/30 05:28:21;;;;;;;3.92;3.05;;;22.60;89.80;;;;;;5075821;28;20095;-81
2021/05/30 05:30:48;;;;;;;4.45;3.25;;;22.60;89.80;;;;;;5064685;28;20402;-81
2021/05/30 05:33:14;;;;;;;3.80;3.20;;;22.60;89.90;;;;;;5065639;28;20028;-81
2021/05/30 05:35:40;;;;;;;7.15;4.07;;;22.60;89.80;;;;;;5026683;28;20119;-81
2021/05/30 05:38:05;;;;;;;5.90;3.35;;;22.60;89.80;;;;;;5060922;28;20028;-81
2021/05/30 05:40:31;;;;;;;3.70;3.03;;;22.60;89.80;;;;;;5061285;28;20150;-81
2021/05/30 05:42:57;;;;;;;3.97;3.17;;;22.60;89.80;;;;;;5065281;28;20029;-81
2021/05/30 05:45:24;;;;;;;5.05;3.72;;;22.60;89.80;;;;;;5057727;28;20380;-81
2021/05/30 05:47:51;;;;;;;3.70;3.00;;;22.60;89.90;;;;;;5075515;28;20041;-81
2021/05/30 05:50:20;;;;;;;3.30;3.00;;;22.60;89.90;;;;;;5046585;28;20036;-82
2021/05/30 05:52:46;;;;;;;4.55;3.03;;;22.60;90.00;;;;;;5066768;28;20084;-81
2021/05/30 05:55:13;;;;;;;5.55;3.55;;;22.60;89.90;;;;;;5050658;28;20028;-81
2021/05/30 05:57:40;;;;;;;4.95;3.30;;;22.60;89.90;;;;;;5060042;28;20035;-80
2021/05/30 06:00:08;;;;;;;4.50;3.17;;;22.60;89.80;;;;;;5054616;28;20075;-82
2021/05/30 06:02:33;;;;;;;4.85;3.42;;;22.60;89.80;;;;;;5061782;28;20021;-82
2021/05/30 06:04:59;;;;;;;5.57;3.95;;;22.60;89.80;;;;;;5045841;28;20043;-81
2021/05/30 06:07:25;;;;;;;3.90;3.30;;;22.60;89.80;;;;;;5062244;28;20064;-81
2021/05/30 06:09:51;;;;;;;3.67;3.30;;;22.60;89.80;;;;;;5054262;28;20056;-80
2021/05/30 06:12:17;;;;;;;5.20;3.65;;;22.60;89.80;;;;;;5061923;28;20084;-81
2021/05/30 06:14:44;;;;;;;4.07;3.40;;;22.60;89.80;;;;;;5054101;28;20072;-80
2021/05/30 06:17:10;;;;;;;5.53;3.20;;;22.60;89.80;;;;;;5056180;28;20029;-81
2021/05/30 06:19:36;;;;;;;3.30;2.97;;;22.60;89.80;;;;;;5074549;28;20031;-81
2021/05/30 06:22:03;;;;;;;5.28;3.30;;;22.60;89.80;;;;;;5071733;28;20036;-81
2021/05/30 06:24:29;;;;;;;4.32;3.20;;;22.60;89.80;;;;;;5057684;28;20033;-80
2021/05/30 06:26:56;;;;;;;3.75;2.90;;;22.60;89.80;;;;;;5054895;28;20021;-81
2021/05/30 06:29:22;;;;;;;3.47;3.17;;;22.60;89.80;;;;;;5062174;28;20054;-81
2021/05/30 06:31:48;;;;;;;2.80;2.60;;;22.60;89.80;;;;;;5061335;28;20036;-80
2021/05/30 06:34:17;;;;;;;3.25;2.95;;;22.70;89.90;;;;;;5053572;28;20447;-81
2021/05/30 06:36:47;;;;;;;4.32;3.13;;;22.70;90.00;;;;;;5054832;28;20075;-80
2021/05/30 06:39:13;;;;;;;2.75;2.55;;;22.70;90.00;;;;;;5065025;28;20021;-81
2021/05/30 06:41:39;;;;;;;4.65;2.63;;;22.70;90.00;;;;;;5059920;28;20032;-81
2021/05/30 06:44:06;;;;;;;3.40;3.10;;;22.70;90.00;;;;;;5063808;28;20356;-80
2021/05/30 06:46:32;;;;;;;3.03;2.72;;;22.70;90.00;;;;;;5048115;28;20474;-81
2021/05/30 06:48:58;;;;;;;3.00;2.70;;;22.70;89.90;;;;;;5052081;28;20091;-83
2021/05/30 06:51:29;;;;;;;3.05;2.55;;;22.70;90.00;;;;;;5071609;28;20483;-81
2021/05/30 06:53:55;;;;;;;3.05;2.75;;;22.70;90.00;;;;;;5070390;28;20024;-81
2021/05/30 06:56:21;;;;;;;3.15;2.85;;;22.70;90.00;;;;;;5038920;28;20391;-82
2021/05/30 06:58:47;;;;;;;5.18;3.20;;;22.70;89.90;;;;;;5043716;28;20060;-81
2021/05/30 07:01:12;;;;;;;3.88;3.10;;;22.70;89.80;;;;;;5062433;28;20043;-81
2021/05/30 07:03:38;;;;;;;6.88;3.67;;;22.80;89.80;;;;;;5065495;28;20032;-81
2021/05/30 07:06:05;;;;;;;4.07;3.50;;;22.70;89.70;;;;;;5061936;28;20174;-81
2021/05/30 07:08:31;;;;;;;4.03;3.60;;;22.80;89.60;;;;;;5033317;28;20040;-81
2021/05/30 07:10:57;;;;;;;5.10;3.45;;;22.80;89.50;;;;;;5039570;28;20037;-81
2021/05/30 07:13:23;;;;;;;7.05;3.97;;;22.80;89.50;;;;;;5069576;28;20025;-81
2021/05/30 07:15:51;;;;;;;4.28;3.60;;;22.70;89.30;;;;;;5039353;28;20033;-81
2021/05/30 07:18:21;;;;;;;6.97;3.58;;;22.70;89.30;;;;;;5061785;28;20025;-81
2021/05/30 07:20:47;;;;;;;4.72;3.75;;;22.70;89.20;;;;;;5058609;28;20083;-81
2021/05/30 07:23:14;;;;;;;6.35;4.07;;;22.70;89.20;;;;;;5062203;28;20132;-81
2021/05/30 07:25:40;;;;;;;6.20;4.20;;;22.70;89.10;;;;;;5065017;28;20032;-83
2021/05/30 07:28:06;;;;;;;5.75;4.07;;;22.70;89.10;;;;;;5066325;28;20497;-81
2021/05/30 07:30:33;;;;;;;4.20;3.65;;;22.70;89.00;;;;;;5069378;28;20075;-82
2021/05/30 07:33:01;;;;;;;4.47;3.83;;;22.70;89.00;;;;;;5064827;28;20033;-81
2021/05/30 07:35:27;;;;;;;4.75;3.88;;;22.70;89.00;;;;;;5056427;28;20032;-82
2021/05/30 07:37:53;;;;;;;4.82;4.30;;;22.70;89.00;;;;;;5059750;28;20029;-83
2021/05/30 07:40:19;;;;;;;5.43;4.50;;;22.70;89.00;;;;;;5066292;28;20037;-82
2021/05/30 07:42:47;;;;;;;5.75;4.60;;;22.70;89.00;;;;;;5062823;28;20067;-83
2021/05/30 07:45:14;;;;;;;4.60;4.18;;;22.70;89.00;;;;;;5051764;28;20033;-82
2021/05/30 07:47:40;;;;;;;5.53;4.50;;;22.70;89.00;;;;;;5066052;28;20048;-82
2021/05/30 07:50:07;;;;;;;6.10;5.03;;;22.70;89.00;;;;;;5065599;28;20107;-81
2021/05/30 07:52:33;;;;;;;4.70;4.20;;;22.70;88.90;;;;;;5061181;28;20032;-82
2021/05/30 07:54:59;;;;;;;5.63;4.70;;;22.70;89.00;;;;;;5051859;28;20087;-80
2021/05/30 07:57:25;;;;;;;5.05;4.55;;;22.70;89.00;;;;;;5062723;28;20028;-81
2021/05/30 07:59:51;;;;;;;5.13;4.18;;;22.70;89.10;;;;;;5069568;28;20052;-81
2021/05/30 08:02:17;;;;;;;4.63;3.80;;;22.70;89.10;;;;;;5045134;28;20565;-81
2021/05/30 08:04:43;;;;;;;5.22;4.20;;;22.80;89.30;;;;;;5058990;28;20078;-82
2021/05/30 08:07:09;;;;;;;4.45;4.05;;;22.80;89.40;;;;;;5051097;28;20483;-82
2021/05/30 08:09:35;;;;;;;4.05;3.67;;;22.80;89.40;;;;;;5039362;28;20454;-81
2021/05/30 08:12:00;;;;;;;5.25;4.20;;;22.80;89.40;;;;;;5063567;28;20478;-81
2021/05/30 08:14:26;;;;;;;4.63;3.97;;;22.80;89.30;;;;;;5052449;28;20407;-82
2021/05/30 08:16:52;;;;;;;4.30;3.90;;;22.90;89.40;;;;;;5055912;28;20033;-81
2021/05/30 08:19:18;;;;;;;3.90;3.50;;;22.80;89.40;;;;;;5070039;28;20020;-82
2021/05/30 08:21:44;;;;;;;3.47;3.15;;;22.80;89.50;;;;;;5041228;28;20037;-85
2021/05/30 08:24:11;;;;;;;4.05;3.30;;;22.90;89.60;;;;;;5055322;28;20037;-84
2021/05/30 08:26:39;;;;;;;3.80;3.22;;;22.90;89.60;;;;;;5069930;28;20041;-83
2021/05/30 08:29:05;;;;;;;3.92;3.30;;;22.90;89.70;;;;;;5063550;28;20071;-83
2021/05/30 08:31:31;;;;;;;3.97;3.33;;;22.90;89.60;;;;;;5047952;28;20064;-82
2021/05/30 08:33:57;;;;;;;4.10;3.28;;;22.90;89.60;;;;;;5057364;28;20056;-82
2021/05/30 08:36:22;;;;;;;3.45;3.15;;;22.90;89.60;;;;;;5031246;28;20029;-82
2021/05/30 08:38:48;;;;;;;3.78;2.95;;;22.90;89.60;;;;;;5022587;28;20602;-82
2021/05/30 08:41:16;;;;;;;3.58;2.97;;;22.90;89.60;;;;;;5057435;28;20032;-82
2021/05/30 08:43:42;;;;;;;4.55;2.95;;;22.90;89.60;;;;;;5074765;28;20036;-82
2021/05/30 08:46:08;;;;;;;3.85;3.45;;;23.00;89.70;;;;;;5042180;28;20028;-82
2021/05/30 08:48:34;;;;;;;3.28;2.97;;;23.00;89.80;;;;;;5058657;28;20471;-81
2021/05/30 08:51:03;;;;;;;3.05;2.75;;;23.00;89.80;;;;;;5059007;28;20033;-81
2021/05/30 08:53:34;;;;;;;4.25;3.00;;;23.00;89.80;;;;;;5076516;28;20021;-82
2021/05/30 08:56:00;;;;;;;3.30;3.00;;;23.00;89.80;;;;;;5074941;28;20029;-82
2021/05/30 08:58:47;;;;;;;3.03;2.72;;;23.00;89.80;;;;;;5077012;28;20133;-82
2021/05/30 09:01:21;;;;;;;2.90;2.70;;;23.10;89.90;;;;;;5096956;28;20051;-82
2021/05/30 09:03:50;;;;;;;2.85;2.50;;;23.10;90.00;;;;;;5079065;28;20338;-81
2021/05/30 09:06:17;;;;;;;2.67;2.47;;;23.10;89.90;;;;;;5096735;28;20059;-82
2021/05/30 09:08:43;;;;;;;2.22;2.03;;;23.10;90.00;;;;;;5078849;28;20060;-82
2021/05/30 09:11:09;;;;;;;2.63;2.42;;;23.10;90.00;;;;;;5062074;28;20040;-82
2021/05/30 09:13:55;;;;;;;2.63;2.42;;;23.10;90.00;;;;;;5061532;28;20073;-82
2021/05/30 09:16:22;;;;;;;2.33;2.13;;;23.10;90.00;;;;;;5078289;28;20081;-81
2021/05/30 09:18:48;;;;;;;2.20;2.00;;;23.10;90.00;;;;;;5097126;28;20035;-82
2021/05/30 09:21:14;;;;;;;2.10;1.90;;;23.10;90.00;;;;;;5045078;28;20028;-82
2021/05/30 09:23:43;;;;;;;3.88;2.42;;;23.20;90.00;;;;;;5096617;28;20064;-82
2021/05/30 09:26:14;;;;;;;2.30;2.10;;;23.20;90.00;;;;;;5078457;28;20043;-81
2021/05/30 09:29:00;;;;;;;2.20;2.00;;;23.20;90.00;;;;;;5078360;28;20020;-82
2021/05/30 09:31:26;;;;;;;2.50;2.10;;;23.20;90.00;;;;;;5096278;28;20036;-82
2021/05/30 09:33:52;;;;;;;2.38;2.00;;;23.20;90.00;;;;;;5096745;28;20484;-81
2021/05/30 09:36:21;;;;;;;2.15;1.95;;;23.20;90.00;;;;;;5061353;28;20478;-82
2021/05/30 09:38:47;;;;;;;3.38;1.95;;;23.20;90.00;;;;;;5096295;28;20024;-82
2021/05/30 09:41:17;;;;;;;2.70;1.95;;;23.20;90.00;;;;;;5095994;28;20108;-81
2021/05/30 09:43:48;;;;;;;1.92;1.83;;;23.20;90.00;;;;;;5044580;28;20051;-81
2021/05/30 09:46:16;;;;;;;2.10;1.75;;;23.20;90.00;;;;;;5078388;28;20377;-81
2021/05/30 09:48:44;;;;;;;1.90;1.73;;;23.20;90.00;;;;;;5078481;28;20024;-82
2021/05/30 09:51:23;;;;;;;1.85;1.60;;;23.20;90.00;;;;;;5077855;28;20078;-81
2021/05/30 09:53:49;;;;;;;1.60;1.50;;;23.30;90.00;;;;;;5077360;28;20082;-81
2021/05/30 09:56:44;;;;;;;1.60;1.50;;;23.30;90.00;;;;;;5096240;28;20020;-81
2021/05/30 09:59:15;;;;;;;1.75;1.60;;;23.30;90.00;;;;;;5077601;28;20048;-81
2021/05/30 10:01:58;;;;;;;1.92;1.73;;;23.30;90.00;;;;;;5077822;28;20063;-82
2021/05/30 10:04:27;;;;;;;1.38;1.27;;;23.30;90.00;;;;;;5077538;28;20024;-81
2021/05/30 10:06:55;;;;;;;1.70;1.60;;;23.30;90.00;;;;;;5095798;28;20020;-81
2021/05/30 10:09:22;;;;;;;1.42;1.33;;;23.30;90.10;;;;;;5095536;28;20031;-80
2021/05/30 10:11:48;;;;;;;1.60;1.50;;;23.30;90.10;;;;;;5077687;28;20085;-81
2021/05/30 10:14:13;;;;;;;1.58;1.48;;;23.30;90.10;;;;;;5077762;28;20032;-80
2021/05/30 10:16:40;;;;;;;1.40;1.30;;;23.40;90.10;;;;;;5077434;28;20032;-81
2021/05/30 10:19:17;;;;;;;1.48;1.20;;;23.40;90.10;;;;;;5095625;28;20103;-82
2021/05/30 10:21:51;;;;;;;1.33;1.23;;;23.40;90.10;;;;;;5095740;28;20032;-82
2021/05/30 10:24:18;;;;;;;1.17;1.13;;;23.40;90.10;;;;;;5094784;28;20031;-84
2021/05/30 10:26:44;;;;;;;1.38;1.27;;;23.40;90.10;;;;;;5064013;28;20216;-82
2021/05/30 10:29:18;;;;;;;1.25;1.10;;;23.40;90.10;;;;;;5066223;28;20020;-82
2021/05/30 10:31:46;;;;;;;1.40;1.30;;;23.40;90.10;;;;;;5062771;28;20033;-81
2021/05/30 10:34:13;;;;;;;1.15;1.05;;;23.40;90.10;;;;;;5074981;28;20029;-81
2021/05/30 10:37:16;;;;;;;1.27;1.10;;;23.40;90.10;;;;;;5063386;28;20095;-81
2021/05/30 10:39:42;;;;;;;1.25;1.15;;;23.40;90.10;;;;;;5061722;28;20024;-82
2021/05/30 10:42:23;;;;;;;1.30;1.20;;;23.40;90.10;;;;;;5034297;28;20085;-82
2021/05/30 10:45:05;;;;;;;2.97;1.38;;;23.40;90.10;;;;;;5084710;28;20082;-82
2021/05/30 10:47:43;;;;;;;1.73;1.50;;;23.40;90.10;;;;;;5082019;28;20077;-82
2021/05/30 10:50:14;;;;;;;1.48;1.38;;;23.40;90.10;;;;;;5069284;28;20024;-82
2021/05/30 10:52:47;;;;;;;1.88;1.52;;;23.40;90.20;;;;;;5092471;28;20032;-82
2021/05/30 10:55:18;;;;;;;2.00;1.45;;;23.40;90.20;;;;;;5051558;28;20474;-83
2021/05/30 10:57:46;;;;;;;1.50;1.40;;;23.50;90.20;;;;;;5064962;28;20176;-83
2021/05/30 11:00:21;;;;;;;1.58;1.48;;;23.50;90.20;;;;;;5073691;28;20367;-82
2021/05/30 11:03:02;;;;;;;1.80;1.70;;;23.50;90.20;;;;;;5069885;28;20036;-83
2021/05/30 11:05:51;;;;;;;2.80;2.00;;;23.50;90.20;;;;;;5064911;28;20077;-81
2021/05/30 11:08:35;;;;;;;2.50;1.88;;;23.50;90.20;;;;;;5074295;28;20117;-83
2021/05/30 11:11:24;;;;;;;2.35;2.13;;;23.50;90.20;;;;;;5058209;28;20355;-82
2021/05/30 11:14:00;;;;;;;2.00;1.90;;;23.50;90.10;;;;;;5067006;28;20160;-83
2021/05/30 11:16:28;;;;;;;2.20;2.00;;;23.50;90.10;;;;;;5092008;28;20460;-82
2021/05/30 11:18:59;;;;;;;2.05;1.73;;;23.50;90.10;;;;;;5085733;28;20056;-81
2021/05/30 11:21:48;;;;;;;2.00;1.80;;;23.50;90.10;;;;;;5088912;28;20024;-82
2021/05/30 11:24:20;;;;;;;2.28;2.00;;;23.50;90.10;;;;;;5067782;28;20029;-82
2021/05/30 11:27:03;;;;;;;2.10;1.90;;;23.50;90.10;;;;;;5068632;28;20040;-83
2021/05/30 11:29:30;;;;;;;2.03;1.80;;;23.50;90.10;;;;;;5059012;28;20036;-81
2021/05/30 11:31:56;;;;;;;2.08;1.88;;;23.50;90.20;;;;;;5090957;28;20036;-81
2021/05/30 11:34:29;;;;;;;2.25;2.05;;;23.60;90.20;;;;;;5066023;28;20032;-83
2021/05/30 11:37:09;;;;;;;2.35;2.00;;;23.50;90.10;;;;;;5073527;28;20036;-81
2021/05/30 11:39:43;;;;;;;2.03;1.83;;;23.60;90.20;;;;;;5063631;28;20089;-82
2021/05/30 11:42:09;;;;;;;1.80;1.65;;;23.60;90.30;;;;;;5071118;28;20031;-82
2021/05/30 11:44:35;;;;;;;1.92;1.70;;;23.60;90.20;;;;;;5068861;28;20027;-82
2021/05/30 11:47:04;;;;;;;1.77;1.67;;;23.60;90.20;;;;;;5076886;28;20112;-82
2021/05/30 11:49:38;;;;;;;1.63;1.52;;;23.60;90.20;;;;;;5057997;28;20046;-82
2021/05/30 11:52:20;;;;;;;1.90;1.60;;;23.60;90.20;;;;;;5072643;28;20036;-82
2021/05/30 11:54:45;;;;;;;1.73;1.60;;;23.60;90.20;;;;;;5057882;28;20135;-81
2021/05/30 11:57:14;;;;;;;1.92;1.73;;;23.60;90.20;;;;;;5059472;28;20040;-83
2021/05/30 11:59:45;;;;;;;1.75;1.65;;;23.60;90.20;;;;;;5041423;28;20045;-83
2021/05/30 12:02:25;;;;;;;1.63;1.52;;;23.60;90.20;;;;;;5073347;28;20028;-83
2021/05/30 12:04:51;;;;;;;1.88;1.67;;;23.60;90.20;;;;;;5046625;28;20028;-82
2021/05/30 12:07:19;;;;;;;1.70;1.60;;;23.60;90.20;;;;;;5055078;28;20028;-82
2021/05/30 12:09:53;;;;;;;1.95;1.80;;;23.60;90.20;;;;;;5050819;28;20043;-82
2021/05/30 12:12:31;;;;;;;1.80;1.70;;;23.60;90.20;;;;;;5072967;28;20036;-82
2021/05/30 12:15:08;;;;;;;2.10;1.88;;;23.70;90.20;;;;;;5055457;28;20036;-82
2021/05/30 12:17:41;;;;;;;1.58;1.48;;;23.60;90.20;;;;;;5054531;28;20028;-83
2021/05/30 12:20:15;;;;;;;2.75;1.83;;;23.70;90.30;;;;;;5072833;28;20526;-82
2021/05/30 12:22:41;;;;;;;1.90;1.60;;;23.70;90.30;;;;;;5073157;28;20028;-83
2021/05/30 12:25:09;;;;;;;2.95;1.77;;;23.70;90.30;;;;;;5072985;28;20039;-83
2021/05/30 12:27:34;;;;;;;2.95;1.75;;;23.70;90.20;;;;;;5038368;28;20020;-83
2021/05/30 12:30:00;;;;;;;2.00;1.55;;;23.70;90.20;;;;;;5055168;28;20466;-82
2021/05/30 12:32:26;;;;;;;2.03;1.80;;;23.70;90.20;;;;;;5055036;28;20375;-82
2021/05/30 12:34:52;;;;;;;1.80;1.70;;;23.70;90.10;;;;;;5054940;28;20186;-82
2021/05/30 12:37:19;;;;;;;2.35;1.73;;;23.70;90.10;;;;;;5055263;28;20029;-82
2021/05/30 12:39:45;;;;;;;1.95;1.75;;;23.70;90.10;;;;;;5071447;28;20073;-82
2021/05/30 12:42:15;;;;;;;2.40;2.08;;;23.70;90.10;;;;;;5071641;28;20028;-82
2021/05/30 12:44:51;;;;;;;1.80;1.70;;;23.70;90.10;;;;;;5071233;28;20029;-83
2021/05/30 12:47:23;;;;;;;2.05;1.85;;;23.70;90.10;;;;;;5055041;28;20066;-81
2021/05/30 12:49:55;;;;;;;1.95;1.85;;;23.70;90.40;;;;;;5072715;28;20029;-81
2021/05/30 12:52:21;;;;;;;1.50;1.30;;;23.70;90.10;;;;;;5054844;28;20032;-81